Aviation Digital Data Service (ADDS)

Output produced by METARs form (0643 UTC 03 December 2016)
found at http://www.aviationweather.gov/adds/metars/
 
KDUJ 030553Z AUTO 27013G23KT 10SM OVC012 01/M02 A3006 RMK AO2 SLP193 60001 T00111017 10011 20011 51004
KDUJ 030501Z AUTO 27014G23KT 10SM OVC014 01/M02 A3006 RMK AO2 T00111017
KDUJ 030453Z AUTO 28015G20KT 10SM OVC016 01/M02 A3006 RMK AO2 SLP194 T00111017 400280011
KDUJ 030449Z AUTO 27014G20KT 10SM OVC014 01/M02 A3006 RMK AO2
KDUJ 030412Z AUTO 26014G21KT 10SM OVC015 01/M02 A3005 RMK AO2 T00111017
KDUJ 030353Z AUTO 27014G23KT 10SM OVC014 01/M02 A3005 RMK AO2 SLP190 T00111017
KDUJ 030310Z AUTO 27015G21KT 10SM OVC014 01/M02 A3004 RMK AO2 T00111017
KDUJ 030300Z AUTO 27013KT 10SM OVC015 01/M02 A3004 RMK AO2 T00111017
KDUJ 030253Z AUTO 27012G24KT 10SM BKN012 BKN017 OVC050 01/M02 A3004 RMK AO2 SLP185 60001 T00111017 53012
KDUJ 030244Z AUTO 27016G24KT 10SM BKN014 BKN042 OVC050 01/M02 A3003 RMK AO2 T00111017
KDUJ 030235Z AUTO 27013G25KT 10SM SCT014 OVC050 01/M02 A3003 RMK AO2 T00111017
KDUJ 030223Z AUTO 26015G20KT 10SM BKN012 BKN017 OVC050 01/M02 A3002 RMK AO2 T00111017
KDUJ 030153Z AUTO 27013G25KT 10SM SCT009 OVC016 01/M02 A3002 RMK AO2 SLP179 T00111017
KDUJ 030150Z AUTO 27016G25KT 10SM SCT009 OVC016 01/M02 A3002 RMK AO2
KDUJ 030146Z AUTO 27015G23KT 10SM BKN009 OVC014 01/M01 A3002 RMK AO2 CIG 008V013 T00111011
KDUJ 030125Z AUTO 27014KT 10SM SCT009 OVC016 01/M01 A3001 RMK AO2 T00111011
KDUJ 030102Z AUTO 28012KT 9SM BKN009 OVC014 01/M01 A3001 RMK AO2 CIG 006V010 T00111011
KDUJ 030053Z AUTO 27014KT 6SM BR BKN010 OVC014 01/M01 A3001 RMK AO2 SNE15 CIG 007V012 SLP179 P0001 T00111011
KDUJ 030031Z AUTO 28012G22KT 10SM FEW006 OVC013 01/M01 A3001 RMK AO2 SNE15 P0001 T00111011
KDUJ 030015Z AUTO 28012G19KT 3SM BR BKN008 BKN011 OVC017 01/M01 A3000 RMK AO2 SNE15 P0000 T00111011
KDUJ 030005Z AUTO 27012G18KT 1SM -SN BR SCT006 BKN010 OVC017 01/M01 A3000 RMK AO2 P0000 T00111011
KDUJ 022358Z AUTO 28010G18KT 2SM -SN BR BKN009 OVC015 01/M01 A3000 RMK AO2 CIG 006V012 P0000 T00111011
KDUJ 022353Z AUTO 27012G22KT 3SM -SN BR OVC012 01/M01 A3000 RMK AO2 SNB38 SLP173 P0000 60000 T00111011 10028 20011 51008
KDUJ 022349Z AUTO 27012G22KT 2 1/2SM -SN BR BKN012 OVC017 01/M01 A3000 RMK AO2 SNB38 P0000
KDUJ 022253Z AUTO 25013G19KT 10SM BKN014 BKN019 OVC026 02/M02 A2999 RMK AO2 SLP170 T00171017
KDUJ 022245Z AUTO 26010KT 10SM BKN014 BKN021 OVC026 02/M01 A2999 RMK AO2 T00171011
KDUJ 022153Z AUTO 26015KT 8SM OVC017 02/M02 A2997 RMK AO2 SLP164 T00171017
KDUJ 022053Z AUTO 26016G27KT 8SM BKN020 OVC025 02/M02 A2996 RMK AO2 PK WND 26027/2046 SLP161 T00221022 53009
KDUJ 021953Z AUTO 25012KT 10SM BKN020 OVC025 02/M02 A2994 RMK AO2 SLP153 T00221022
KDUJ 021853Z AUTO 26015G22KT 10SM BKN019 OVC025 03/M02 A2994 RMK AO2 SLP151 T00281017
KDUJ 021753Z AUTO 25015G20KT 10SM BKN018 OVC026 03/M02 A2993 RMK AO2 SLP151 T00281017 10028 20017 58005
KDUJ 021653Z AUTO 26018G21KT 10SM OVC018 02/M02 A2995 RMK AO2 SLP156 T00221022
KDUJ 021553Z AUTO 25015G20KT 10SM BKN020 OVC024 02/M02 A2996 RMK AO2 PK WND 27026/1539 SLP159 T00221022
KDUJ 021453Z AUTO 26011KT 10SM BKN017 BKN022 OVC050 03/M02 A2995 RMK AO2 SLP156 T00281017 51010
KDUJ 021430Z AUTO 24014KT 10SM BKN016 BKN020 OVC050 02/M02 A2994 RMK AO2 T00171022
KDUJ 021353Z AUTO 25015G21KT 10SM OVC014 02/M02 A2994 RMK AO2 SLP155 T00171022
KDUJ 021334Z AUTO 25011G19KT 10SM BKN014 OVC047 02/M02 A2994 RMK AO2 T00171022
KDUJ 021308Z AUTO 24013KT 10SM SCT015 OVC046 02/M02 A2993 RMK AO2 T00171022
KDUJ 021253Z AUTO 25014G20KT 10SM BKN015 OVC042 02/M02 A2993 RMK AO2 SLP150 T00171022
KDUJ 021243Z AUTO 25013G18KT 10SM OVC015 02/M02 A2993 RMK AO2 T00171022
KDUJ 021201Z AUTO 25014G20KT 10SM OVC014 02/M02 A2992 RMK AO2 T00171022
KDUJ 021153Z AUTO 25014G18KT 10SM OVC015 02/M02 A2992 RMK AO2 SLP146 T00171022 10017 20011 53012
KDUJ 021053Z AUTO 25015KT 10SM OVC016 02/M02 A2991 RMK AO2 SLP142 T00171022
KDUJ 021041Z AUTO 25014G20KT 10SM OVC016 02/M02 A2991 RMK AO2 T00171022
KDUJ 021015Z AUTO 25014KT 10SM OVC014 02/M02 A2990 RMK AO2 T00171022
KDUJ 020953Z AUTO 25015G21KT 10SM OVC016 02/M02 A2989 RMK AO2 SLP137 T00171022
KDUJ 020853Z AUTO 25016G23KT 10SM OVC017 01/M02 A2988 RMK AO2 SLP134 T00111022 50006
KDUJ 020753Z AUTO 24011KT 10SM OVC015 02/M02 A2989 RMK AO2 SLP134 T00171022
KDUJ 020653Z AUTO 24012G20KT 10SM OVC016 02/M02 A2987 RMK AO2 SLP131 T00171022
KDUJ 020553Z AUTO 24014G20KT 10SM OVC016 02/M02 A2986 RMK AO2 SLP127 T00171022 10017 20011 53009
KDUJ 020453Z AUTO 24013KT 10SM OVC016 02/M03 A2986 RMK AO2 SLP124 T00171028 400670011 TSNO
KDUJ 020353Z AUTO 25015G19KT 10SM OVC018 02/M03 A2984 RMK AO2 SLP119 T00171028
KDUJ 020253Z AUTO 25013KT 10SM OVC020 02/M03 A2984 RMK AO2 SLP117 T00171033 50002
KDUJ 020153Z AUTO 25016KT 10SM BKN023 OVC049 02/M03 A2984 RMK AO2 SLP118 T00171033
KDUJ 020132Z AUTO 25014KT 10SM BKN023 OVC050 02/M03 A2984 RMK AO2 T00171033
KDUJ 020053Z AUTO 25012KT 10SM SCT025 OVC050 02/M03 A2983 RMK AO2 SLP116 T00171033
KDUJ 012353Z AUTO 25011G20KT 10SM OVC045 01/M03 A2983 RMK AO2 SLP114 T00111033 10028 20011 51016
KDUJ 012338Z AUTO 24012KT 10SM SCT025 OVC042 01/M03 A2983 RMK AO2 T00111033
KDUJ 012316Z AUTO 24012G19KT 10SM SCT024 BKN028 OVC040 02/M03 A2983 RMK AO2 T00171033
KDUJ 012253Z AUTO 24014G19KT 10SM FEW024 OVC040 02/M03 A2982 RMK AO2 SLP110 T00171033
KDUJ 012153Z AUTO 25013KT 10SM FEW022 OVC034 02/M03 A2980 RMK AO2 SLP104 T00171033
KDUJ 012138Z AUTO 26014G21KT 10SM FEW022 BKN030 OVC034 02/M03 A2980 RMK AO2 T00171033
KDUJ 012117Z AUTO 25015G21KT 9SM BKN026 OVC032 02/M03 A2979 RMK AO2 T00171033
KDUJ 012053Z AUTO 26012KT 10SM BKN034 OVC041 02/M04 A2978 RMK AO2 SLP096 T00171039 53013
KDUJ 011953Z AUTO 25013KT 10SM BKN030 OVC036 02/M04 A2976 RMK AO2 PK WND 25027/1909 SLP087 T00221039
KDUJ 011853Z AUTO 26013G23KT 10SM FEW021 OVC032 02/M04 A2974 RMK AO2 PK WND 26027/1806 SLP082 T00171039